sensor_id;sensor_type;location;lat;lon;timestamp;pressure;altitude;pressure_sealevel;temperature;humidity
63194;BME280;49289;51.670;5.624;2023-03-31T00:00:57;100538.94;;;17.10;62.51
63194;BME280;49289;51.670;5.624;2023-03-31T00:02:45;100531.44;;;17.06;62.41
63194;BME280;49289;51.670;5.624;2023-03-31T00:04:32;100526.73;;;16.84;63.12
63194;BME280;49289;51.670;5.624;2023-03-31T00:06:20;100519.28;;;16.84;63.17
63194;BME280;49289;51.670;5.624;2023-03-31T00:08:09;100506.00;;;16.91;62.73
63194;BME280;49289;51.670;5.624;2023-03-31T00:09:56;100502.42;;;16.99;62.70
63194;BME280;49289;51.670;5.624;2023-03-31T00:11:44;100497.89;;;17.26;61.84
63194;BME280;49289;51.670;5.624;2023-03-31T00:13:31;100496.95;;;17.15;61.79
63194;BME280;49289;51.670;5.624;2023-03-31T00:15:18;100495.84;;;17.02;62.29
63194;BME280;49289;51.670;5.624;2023-03-31T00:17:06;100494.34;;;16.84;63.25
63194;BME280;49289;51.670;5.624;2023-03-31T00:18:54;100490.72;;;17.03;63.06
63194;BME280;49289;51.670;5.624;2023-03-31T00:20:42;100496.08;;;17.10;63.09
63194;BME280;49289;51.670;5.624;2023-03-31T00:22:30;100490.72;;;16.72;64.21
63194;BME280;49289;51.670;5.624;2023-03-31T00:24:19;100488.12;;;16.84;64.01
63194;BME280;49289;51.670;5.624;2023-03-31T00:26:06;100499.41;;;16.96;63.74
63194;BME280;49289;51.670;5.624;2023-03-31T00:27:54;100472.67;;;17.07;63.82
63194;BME280;49289;51.670;5.624;2023-03-31T00:29:43;100468.52;;;17.37;63.01
63194;BME280;49289;51.670;5.624;2023-03-31T00:31:31;100467.95;;;17.07;63.26
63194;BME280;49289;51.670;5.624;2023-03-31T00:33:19;100478.23;;;17.47;62.94
63194;BME280;49289;51.670;5.624;2023-03-31T00:35:07;100476.13;;;17.56;62.76
63194;BME280;49289;51.670;5.624;2023-03-31T00:36:55;100473.84;;;17.20;63.93
63194;BME280;49289;51.670;5.624;2023-03-31T00:38:42;100447.46;;;17.47;63.09
63194;BME280;49289;51.670;5.624;2023-03-31T00:40:29;100464.14;;;17.49;63.00
63194;BME280;49289;51.670;5.624;2023-03-31T00:42:16;100447.48;;;17.51;62.69
63194;BME280;49289;51.670;5.624;2023-03-31T00:44:19;100444.00;;;17.52;62.84
63194;BME280;49289;51.670;5.624;2023-03-31T00:46:10;100438.39;;;17.33;63.28
63194;BME280;49289;51.670;5.624;2023-03-31T00:47:59;100449.87;;;16.88;64.88
63194;BME280;49289;51.670;5.624;2023-03-31T00:49:46;100434.30;;;17.29;63.71
63194;BME280;49289;51.670;5.624;2023-03-31T00:51:34;100428.78;;;17.44;62.96
63194;BME280;49289;51.670;5.624;2023-03-31T00:53:21;100425.95;;;17.34;63.13
63194;BME280;49289;51.670;5.624;2023-03-31T00:55:09;100437.48;;;17.58;62.74
63194;BME280;49289;51.670;5.624;2023-03-31T00:56:55;100413.42;;;17.58;62.21
63194;BME280;49289;51.670;5.624;2023-03-31T00:58:42;100417.36;;;17.71;62.01
63194;BME280;49289;51.670;5.624;2023-03-31T01:00:29;100416.36;;;17.71;62.02
63194;BME280;49289;51.670;5.624;2023-03-31T01:02:16;100407.48;;;17.69;62.05
63194;BME280;49289;51.670;5.624;2023-03-31T01:04:03;100395.34;;;17.58;62.16
63194;BME280;49289;51.670;5.624;2023-03-31T01:05:53;100390.11;;;17.57;62.12
63194;BME280;49289;51.670;5.624;2023-03-31T01:07:41;100390.45;;;17.60;61.99
63194;BME280;49289;51.670;5.624;2023-03-31T01:09:28;100389.36;;;17.57;62.03
63194;BME280;49289;51.670;5.624;2023-03-31T01:11:16;100403.00;;;17.71;61.88
63194;BME280;49289;51.670;5.624;2023-03-31T01:13:02;100382.06;;;17.60;61.93
63194;BME280;49289;51.670;5.624;2023-03-31T01:14:49;100392.53;;;17.61;62.04
63194;BME280;49289;51.670;5.624;2023-03-31T01:16:36;100373.95;;;17.44;62.36
63194;BME280;49289;51.670;5.624;2023-03-31T01:18:23;100386.84;;;17.15;63.30
63194;BME280;49289;51.670;5.624;2023-03-31T01:20:16;100382.14;;;17.21;63.52
63194;BME280;49289;51.670;5.624;2023-03-31T01:24:30;100376.02;;;17.07;64.02
63194;BME280;49289;51.670;5.624;2023-03-31T01:26:42;100366.97;;;17.30;63.75
63194;BME280;49289;51.670;5.624;2023-03-31T01:28:35;100357.33;;;17.57;62.98
63194;BME280;49289;51.670;5.624;2023-03-31T01:33:03;100350.61;;;17.57;62.80
63194;BME280;49289;51.670;5.624;2023-03-31T01:35:03;100350.42;;;17.67;62.44
63194;BME280;49289;51.670;5.624;2023-03-31T01:37:14;100344.52;;;17.46;62.99
63194;BME280;49289;51.670;5.624;2023-03-31T01:39:22;100324.06;;;17.55;62.50
63194;BME280;49289;51.670;5.624;2023-03-31T01:41:24;100323.81;;;17.41;62.79
63194;BME280;49289;51.670;5.624;2023-03-31T01:43:13;100317.30;;;17.32;63.09
63194;BME280;49289;51.670;5.624;2023-03-31T01:45:00;100313.39;;;17.16;63.43
63194;BME280;49289;51.670;5.624;2023-03-31T01:46:47;100324.35;;;17.44;62.79
63194;BME280;49289;51.670;5.624;2023-03-31T01:48:38;100319.41;;;17.38;63.04
63194;BME280;49289;51.670;5.624;2023-03-31T01:50:25;100323.62;;;17.35;63.11
63194;BME280;49289;51.670;5.624;2023-03-31T01:52:12;100301.54;;;17.17;63.50
63194;BME280;49289;51.670;5.624;2023-03-31T01:54:01;100298.29;;;17.13;63.66
63194;BME280;49289;51.670;5.624;2023-03-31T01:55:47;100296.05;;;16.78;64.29
63194;BME280;49289;51.670;5.624;2023-03-31T01:57:35;100302.38;;;16.70;64.71
63194;BME280;49289;51.670;5.624;2023-03-31T01:59:22;100299.13;;;16.53;65.90
63194;BME280;49289;51.670;5.624;2023-03-31T02:01:12;100280.55;;;16.86;64.97
63194;BME280;49289;51.670;5.624;2023-03-31T02:02:59;100293.13;;;17.10;64.34
63194;BME280;49289;51.670;5.624;2023-03-31T02:04:46;100286.73;;;17.05;64.59
63194;BME280;49289;51.670;5.624;2023-03-31T02:06:34;100281.48;;;16.91;64.80
63194;BME280;49289;51.670;5.624;2023-03-31T02:08:21;100265.53;;;16.57;65.44
63194;BME280;49289;51.670;5.624;2023-03-31T02:10:09;100275.95;;;16.94;65.39
63194;BME280;49289;51.670;5.624;2023-03-31T02:11:56;100263.39;;;15.79;68.30
63194;BME280;49289;51.670;5.624;2023-03-31T02:13:45;100265.03;;;15.93;68.96
63194;BME280;49289;51.670;5.624;2023-03-31T02:15:33;100247.34;;;15.71;69.19
63194;BME280;49289;51.670;5.624;2023-03-31T02:17:22;100247.93;;;15.96;69.70
63194;BME280;49289;51.670;5.624;2023-03-31T02:19:09;100234.30;;;15.46;70.33
63194;BME280;49289;51.670;5.624;2023-03-31T02:20:58;100245.58;;;15.58;70.80
63194;BME280;49289;51.670;5.624;2023-03-31T02:22:47;100235.20;;;15.59;70.75
63194;BME280;49289;51.670;5.624;2023-03-31T02:24:34;100212.91;;;15.84;70.11
63194;BME280;49289;51.670;5.624;2023-03-31T02:26:22;100208.77;;;15.16;70.41
63194;BME280;49289;51.670;5.624;2023-03-31T02:28:10;100217.36;;;15.67;70.12
63194;BME280;49289;51.670;5.624;2023-03-31T02:29:57;100213.84;;;15.87;68.61
63194;BME280;49289;51.670;5.624;2023-03-31T02:31:46;100213.40;;;15.93;70.02
63194;BME280;49289;51.670;5.624;2023-03-31T02:33:34;100191.11;;;16.07;68.61
63194;BME280;49289;51.670;5.624;2023-03-31T02:35:22;100198.93;;;15.84;69.16
63194;BME280;49289;51.670;5.624;2023-03-31T02:37:10;100195.39;;;16.15;69.09
63194;BME280;49289;51.670;5.624;2023-03-31T02:38:59;100170.41;;;16.26;68.16
63194;BME280;49289;51.670;5.624;2023-03-31T02:40:45;100180.52;;;16.20;69.12
63194;BME280;49289;51.670;5.624;2023-03-31T02:42:32;100170.59;;;16.53;68.04
63194;BME280;49289;51.670;5.624;2023-03-31T02:44:20;100150.08;;;16.58;67.22
63194;BME280;49289;51.670;5.624;2023-03-31T02:46:08;100148.47;;;16.75;66.73
63194;BME280;49289;51.670;5.624;2023-03-31T02:47:57;100165.70;;;16.85;66.48
63194;BME280;49289;51.670;5.624;2023-03-31T02:49:45;100139.70;;;16.81;66.38
63194;BME280;49289;51.670;5.624;2023-03-31T02:51:54;100134.46;;;17.08;65.72
63194;BME280;49289;51.670;5.624;2023-03-31T02:53:46;100124.61;;;17.12;65.36
63194;BME280;49289;51.670;5.624;2023-03-31T02:57:46;100128.47;;;17.25;65.45
63194;BME280;49289;51.670;5.624;2023-03-31T02:59:42;100108.50;;;17.36;64.85
63194;BME280;49289;51.670;5.624;2023-03-31T03:01:52;100097.72;;;17.41;64.54
63194;BME280;49289;51.670;5.624;2023-03-31T03:03:43;100116.75;;;16.95;65.50
63194;BME280;49289;51.670;5.624;2023-03-31T03:05:34;100095.47;;;16.82;66.16
63194;BME280;49289;51.670;5.624;2023-03-31T03:07:23;100104.09;;;17.26;65.48
63194;BME280;49289;51.670;5.624;2023-03-31T03:09:15;100094.23;;;17.33;64.98
63194;BME280;49289;51.670;5.624;2023-03-31T03:11:04;100084.16;;;17.14;65.73
63194;BME280;49289;51.670;5.624;2023-03-31T03:12:51;100079.63;;;17.25;65.50
63194;BME280;49289;51.670;5.624;2023-03-31T03:14:39;100065.49;;;17.08;65.59
63194;BME280;49289;51.670;5.624;2023-03-31T03:16:26;100059.40;;;17.24;65.16
63194;BME280;49289;51.670;5.624;2023-03-31T03:20:05;100063.38;;;17.24;65.15
63194;BME280;49289;51.670;5.624;2023-03-31T03:21:52;100049.42;;;17.13;65.51
63194;BME280;49289;51.670;5.624;2023-03-31T03:23:39;100042.57;;;17.23;65.19
63194;BME280;49289;51.670;5.624;2023-03-31T03:25:26;100040.17;;;17.26;64.89
63194;BME280;49289;51.670;5.624;2023-03-31T03:27:13;100033.28;;;17.36;64.66
63194;BME280;49289;51.670;5.624;2023-03-31T03:29:00;100046.98;;;17.46;64.62
63194;BME280;49289;51.670;5.624;2023-03-31T03:30:47;100052.69;;;17.36;64.87
63194;BME280;49289;51.670;5.624;2023-03-31T03:32:34;100041.41;;;17.34;64.69
63194;BME280;49289;51.670;5.624;2023-03-31T03:34:21;100051.69;;;17.26;65.10
63194;BME280;49289;51.670;5.624;2023-03-31T03:36:08;100034.00;;;17.17;64.73
63194;BME280;49289;51.670;5.624;2023-03-31T03:37:56;100053.77;;;16.98;65.67
63194;BME280;49289;51.670;5.624;2023-03-31T03:39:44;100047.62;;;16.88;66.33
63194;BME280;49289;51.670;5.624;2023-03-31T03:41:33;100020.31;;;17.03;65.69
63194;BME280;49289;51.670;5.624;2023-03-31T03:43:20;100031.76;;;17.08;65.66
63194;BME280;49289;51.670;5.624;2023-03-31T03:45:09;100019.69;;;16.88;65.90
63194;BME280;49289;51.670;5.624;2023-03-31T03:46:56;100017.53;;;16.83;66.16
63194;BME280;49289;51.670;5.624;2023-03-31T03:48:43;100012.88;;;16.65;66.45
63194;BME280;49289;51.670;5.624;2023-03-31T03:50:30;100015.16;;;16.70;66.82
63194;BME280;49289;51.670;5.624;2023-03-31T03:52:17;100029.81;;;16.57;67.10
63194;BME280;49289;51.670;5.624;2023-03-31T03:54:04;100023.26;;;16.54;68.04
63194;BME280;49289;51.670;5.624;2023-03-31T03:55:51;100009.69;;;16.67;67.51
63194;BME280;49289;51.670;5.624;2023-03-31T03:57:38;99981.23;;;16.64;67.33
63194;BME280;49289;51.670;5.624;2023-03-31T03:59:25;100000.25;;;16.59;67.90
63194;BME280;49289;51.670;5.624;2023-03-31T04:01:12;99980.84;;;16.28;68.39
63194;BME280;49289;51.670;5.624;2023-03-31T04:03:00;99970.49;;;16.25;68.37
63194;BME280;49289;51.670;5.624;2023-03-31T04:04:48;99962.13;;;16.46;67.89
63194;BME280;49289;51.670;5.624;2023-03-31T04:06:37;99957.17;;;16.67;67.06
63194;BME280;49289;51.670;5.624;2023-03-31T04:08:25;99959.86;;;16.94;66.66
63194;BME280;49289;51.670;5.624;2023-03-31T04:10:13;99959.04;;;16.63;66.91
63194;BME280;49289;51.670;5.624;2023-03-31T04:12:00;99944.55;;;16.64;66.75
63194;BME280;49289;51.670;5.624;2023-03-31T04:13:47;99952.23;;;16.93;66.47
63194;BME280;49289;51.670;5.624;2023-03-31T04:15:34;99942.88;;;16.86;66.58
63194;BME280;49289;51.670;5.624;2023-03-31T04:17:21;99948.94;;;16.63;66.62
63194;BME280;49289;51.670;5.624;2023-03-31T04:19:08;99943.92;;;16.74;66.92
63194;BME280;49289;51.670;5.624;2023-03-31T04:20:55;99933.59;;;16.85;66.46
63194;BME280;49289;51.670;5.624;2023-03-31T04:22:42;99928.45;;;16.83;66.50
63194;BME280;49289;51.670;5.624;2023-03-31T04:24:29;99908.95;;;16.70;66.35
63194;BME280;49289;51.670;5.624;2023-03-31T04:26:17;99912.16;;;16.64;66.88
63194;BME280;49289;51.670;5.624;2023-03-31T04:28:06;99897.95;;;16.54;66.80
63194;BME280;49289;51.670;5.624;2023-03-31T04:29:54;99902.95;;;16.33;67.78
63194;BME280;49289;51.670;5.624;2023-03-31T04:31:43;99906.82;;;16.58;67.09
63194;BME280;49289;51.670;5.624;2023-03-31T04:33:16;99909.06;;;16.04;68.71
63194;BME280;49289;51.670;5.624;2023-03-31T04:35:04;99905.59;;;16.23;68.64
63194;BME280;49289;51.670;5.624;2023-03-31T04:36:51;99901.37;;;15.88;69.48
63194;BME280;49289;51.670;5.624;2023-03-31T04:38:38;99878.16;;;15.97;68.92
63194;BME280;49289;51.670;5.624;2023-03-31T04:40:27;99891.28;;;16.30;68.26
63194;BME280;49289;51.670;5.624;2023-03-31T04:42:15;99862.77;;;16.51;67.31
63194;BME280;49289;51.670;5.624;2023-03-31T04:44:05;99878.50;;;16.61;67.48
63194;BME280;49289;51.670;5.624;2023-03-31T04:45:54;99873.69;;;16.60;67.29
63194;BME280;49289;51.670;5.624;2023-03-31T04:47:41;99876.07;;;16.77;66.97
63194;BME280;49289;51.670;5.624;2023-03-31T04:49:28;99852.20;;;16.80;66.49
63194;BME280;49289;51.670;5.624;2023-03-31T04:51:16;99845.66;;;16.81;66.37
63194;BME280;49289;51.670;5.624;2023-03-31T04:52:48;99859.43;;;17.08;65.92
63194;BME280;49289;51.670;5.624;2023-03-31T04:54:36;99832.32;;;16.80;66.35
63194;BME280;49289;51.670;5.624;2023-03-31T04:56:24;99841.28;;;16.91;66.01
63194;BME280;49289;51.670;5.624;2023-03-31T04:58:14;99832.53;;;16.59;66.77
63194;BME280;49289;51.670;5.624;2023-03-31T05:00:01;99819.98;;;16.79;66.30
63194;BME280;49289;51.670;5.624;2023-03-31T05:01:48;99824.11;;;16.99;65.69
63194;BME280;49289;51.670;5.624;2023-03-31T05:03:35;99831.14;;;17.18;65.30
63194;BME280;49289;51.670;5.624;2023-03-31T05:05:23;99834.73;;;17.04;65.28
63194;BME280;49289;51.670;5.624;2023-03-31T05:07:11;99816.08;;;16.96;65.55
63194;BME280;49289;51.670;5.624;2023-03-31T05:09:00;99810.03;;;16.98;65.53
63194;BME280;49289;51.670;5.624;2023-03-31T05:10:49;99796.91;;;17.14;65.01
63194;BME280;49289;51.670;5.624;2023-03-31T05:12:38;99809.75;;;17.17;64.86
63194;BME280;49289;51.670;5.624;2023-03-31T05:14:25;99809.41;;;17.31;64.48
63194;BME280;49289;51.670;5.624;2023-03-31T05:16:17;99817.75;;;17.38;64.56
63194;BME280;49289;51.670;5.624;2023-03-31T05:18:06;99815.92;;;17.08;65.23
63194;BME280;49289;51.670;5.624;2023-03-31T05:19:54;99810.73;;;17.22;65.08
63194;BME280;49289;51.670;5.624;2023-03-31T05:21:45;99811.59;;;16.98;65.32
63194;BME280;49289;51.670;5.624;2023-03-31T05:23:32;99808.88;;;16.93;65.50
63194;BME280;49289;51.670;5.624;2023-03-31T05:25:21;99803.41;;;16.81;65.81
63194;BME280;49289;51.670;5.624;2023-03-31T05:27:11;99779.78;;;16.95;65.60
63194;BME280;49289;51.670;5.624;2023-03-31T05:28:58;99786.02;;;16.93;65.70
63194;BME280;49289;51.670;5.624;2023-03-31T05:30:47;99779.55;;;16.90;65.78
63194;BME280;49289;51.670;5.624;2023-03-31T05:32:34;99775.23;;;16.54;66.12
63194;BME280;49289;51.670;5.624;2023-03-31T05:34:22;99764.53;;;16.33;66.78
63194;BME280;49289;51.670;5.624;2023-03-31T05:36:12;99777.29;;;16.58;66.56
63194;BME280;49289;51.670;5.624;2023-03-31T05:37:43;99751.45;;;16.30;66.08
63194;BME280;49289;51.670;5.624;2023-03-31T05:40:20;99743.73;;;16.17;67.42
63194;BME280;49289;51.670;5.624;2023-03-31T05:42:09;99744.39;;;16.21;67.22
63194;BME280;49289;51.670;5.624;2023-03-31T05:43:56;99741.03;;;16.49;66.63
63194;BME280;49289;51.670;5.624;2023-03-31T05:45:43;99756.34;;;16.31;67.26
63194;BME280;49289;51.670;5.624;2023-03-31T05:47:32;99760.97;;;16.38;67.07
63194;BME280;49289;51.670;5.624;2023-03-31T05:49:19;99764.21;;;16.52;66.67
63194;BME280;49289;51.670;5.624;2023-03-31T05:51:08;99751.27;;;16.20;67.70
63194;BME280;49289;51.670;5.624;2023-03-31T05:52:56;99720.73;;;16.04;67.86
63194;BME280;49289;51.670;5.624;2023-03-31T05:54:44;99733.77;;;15.84;68.72
63194;BME280;49289;51.670;5.624;2023-03-31T05:56:32;99728.06;;;15.98;67.84
63194;BME280;49289;51.670;5.624;2023-03-31T05:58:20;99742.40;;;15.67;68.60
63194;BME280;49289;51.670;5.624;2023-03-31T06:00:09;99747.95;;;16.15;67.49
63194;BME280;49289;51.670;5.624;2023-03-31T06:01:57;99745.66;;;16.53;66.87
63194;BME280;49289;51.670;5.624;2023-03-31T06:03:44;99727.02;;;16.04;67.74
63194;BME280;49289;51.670;5.624;2023-03-31T06:05:32;99728.17;;;16.15;67.53
63194;BME280;49289;51.670;5.624;2023-03-31T06:07:19;99749.23;;;16.49;66.96
63194;BME280;49289;51.670;5.624;2023-03-31T06:09:08;99746.26;;;16.63;66.50
63194;BME280;49289;51.670;5.624;2023-03-31T06:10:56;99747.09;;;16.74;65.50
63194;BME280;49289;51.670;5.624;2023-03-31T06:12:44;99652.20;;;15.87;66.57
63194;BME280;49289;51.670;5.624;2023-03-31T06:14:32;99737.45;;;16.38;67.17
63194;BME280;49289;51.670;5.624;2023-03-31T06:16:20;99740.77;;;16.61;66.44
63194;BME280;49289;51.670;5.624;2023-03-31T06:18:07;99742.09;;;16.39;66.48
63194;BME280;49289;51.670;5.624;2023-03-31T06:19:54;99740.19;;;16.92;65.59
63194;BME280;49289;51.670;5.624;2023-03-31T06:21:41;99743.52;;;16.80;65.11
63194;BME280;49289;51.670;5.624;2023-03-31T06:23:28;99739.38;;;16.62;66.30
63194;BME280;49289;51.670;5.624;2023-03-31T06:25:16;99720.73;;;16.85;65.56
63194;BME280;49289;51.670;5.624;2023-03-31T06:27:04;99718.83;;;16.54;66.14
63194;BME280;49289;51.670;5.624;2023-03-31T06:28:52;99723.55;;;16.57;65.81
63194;BME280;49289;51.670;5.624;2023-03-31T06:30:40;99731.19;;;16.83;65.61
63194;BME280;49289;51.670;5.624;2023-03-31T06:32:28;99716.88;;;17.06;64.82
63194;BME280;49289;51.670;5.624;2023-03-31T06:34:16;99726.36;;;15.71;69.32
63194;BME280;49289;51.670;5.624;2023-03-31T06:36:04;99725.11;;;15.32;72.03
63194;BME280;49289;51.670;5.624;2023-03-31T06:37:51;99727.45;;;15.40;73.21
63194;BME280;49289;51.670;5.624;2023-03-31T06:39:38;99713.28;;;15.27;73.89
63194;BME280;49289;51.670;5.624;2023-03-31T06:41:25;99718.19;;;15.37;73.34
63194;BME280;49289;51.670;5.624;2023-03-31T06:43:13;99715.43;;;14.68;75.39
63194;BME280;49289;51.670;5.624;2023-03-31T06:45:01;99719.74;;;15.16;75.04
63194;BME280;49289;51.670;5.624;2023-03-31T06:46:49;99693.88;;;15.33;73.96
63194;BME280;49289;51.670;5.624;2023-03-31T06:48:37;99703.83;;;15.86;72.71
63194;BME280;49289;51.670;5.624;2023-03-31T06:50:25;99685.10;;;15.58;73.12
63194;BME280;49289;51.670;5.624;2023-03-31T06:52:13;99684.88;;;16.01;71.45
63194;BME280;49289;51.670;5.624;2023-03-31T06:54:01;99699.39;;;16.28;70.95
63194;BME280;49289;51.670;5.624;2023-03-31T06:55:49;99693.69;;;16.24;70.69
63194;BME280;49289;51.670;5.624;2023-03-31T06:57:37;99684.22;;;16.38;70.11
63194;BME280;49289;51.670;5.624;2023-03-31T06:59:25;99682.38;;;16.61;69.40
63194;BME280;49289;51.670;5.624;2023-03-31T07:01:13;99687.61;;;16.63;68.59
63194;BME280;49289;51.670;5.624;2023-03-31T07:03:00;99668.38;;;16.83;68.34
63194;BME280;49289;51.670;5.624;2023-03-31T07:04:47;99683.77;;;17.13;67.66
63194;BME280;49289;51.670;5.624;2023-03-31T07:06:34;99689.73;;;17.15;68.86
63194;BME280;49289;51.670;5.624;2023-03-31T07:08:21;99685.33;;;16.94;68.64
63194;BME280;49289;51.670;5.624;2023-03-31T07:10:08;99681.44;;;16.91;68.11
63194;BME280;49289;51.670;5.624;2023-03-31T07:11:55;99680.90;;;16.74;67.93
63194;BME280;49289;51.670;5.624;2023-03-31T07:13:43;99682.39;;;16.64;69.09
63194;BME280;49289;51.670;5.624;2023-03-31T07:15:30;99682.57;;;16.69;68.83
63194;BME280;49289;51.670;5.624;2023-03-31T07:17:18;99670.14;;;16.39;69.40
63194;BME280;49289;51.670;5.624;2023-03-31T07:19:07;99677.19;;;15.92;69.90
63194;BME280;49289;51.670;5.624;2023-03-31T07:20:55;99679.17;;;16.39;70.14
63194;BME280;49289;51.670;5.624;2023-03-31T07:22:44;99679.45;;;16.25;69.75
63194;BME280;49289;51.670;5.624;2023-03-31T07:24:32;99680.95;;;15.64;71.48
63194;BME280;49289;51.670;5.624;2023-03-31T07:26:19;99661.19;;;15.72;72.01
63194;BME280;49289;51.670;5.624;2023-03-31T07:28:08;99666.90;;;15.70;70.95
63194;BME280;49289;51.670;5.624;2023-03-31T07:29:56;99658.16;;;16.15;70.56
63194;BME280;49289;51.670;5.624;2023-03-31T07:31:45;99651.94;;;16.47;69.54
63194;BME280;49289;51.670;5.624;2023-03-31T07:33:32;99629.06;;;16.53;69.51
63194;BME280;49289;51.670;5.624;2023-03-31T07:35:20;99642.48;;;16.68;68.62
63194;BME280;49289;51.670;5.624;2023-03-31T07:37:07;99647.03;;;16.56;69.06
63194;BME280;49289;51.670;5.624;2023-03-31T07:38:54;99642.87;;;16.61;69.33
63194;BME280;49289;51.670;5.624;2023-03-31T07:40:41;99643.66;;;16.49;69.86
63194;BME280;49289;51.670;5.624;2023-03-31T07:42:28;99629.04;;;16.75;68.73
63194;BME280;49289;51.670;5.624;2023-03-31T07:44:15;99625.38;;;16.42;68.70
63194;BME280;49289;51.670;5.624;2023-03-31T07:46:02;99621.72;;;16.80;68.36
63194;BME280;49289;51.670;5.624;2023-03-31T07:47:49;99628.66;;;16.90;67.89
63194;BME280;49289;51.670;5.624;2023-03-31T07:49:36;99642.94;;;16.86;68.35
63194;BME280;49289;51.670;5.624;2023-03-31T07:51:24;99624.34;;;16.69;68.39
63194;BME280;49289;51.670;5.624;2023-03-31T07:53:10;99636.58;;;16.82;67.78
63194;BME280;49289;51.670;5.624;2023-03-31T07:54:57;99635.00;;;16.23;68.83
63194;BME280;49289;51.670;5.624;2023-03-31T07:56:44;99619.31;;;16.40;68.74
63194;BME280;49289;51.670;5.624;2023-03-31T07:58:31;99619.28;;;16.65;68.30
63194;BME280;49289;51.670;5.624;2023-03-31T08:00:20;99617.95;;;15.88;69.82
63194;BME280;49289;51.670;5.624;2023-03-31T08:02:08;99632.09;;;16.17;69.79
63194;BME280;49289;51.670;5.624;2023-03-31T08:03:56;99631.02;;;16.11;70.17
63194;BME280;49289;51.670;5.624;2023-03-31T08:05:43;99628.55;;;15.50;71.86
63194;BME280;49289;51.670;5.624;2023-03-31T08:07:32;99626.05;;;15.74;71.74
63194;BME280;49289;51.670;5.624;2023-03-31T08:09:19;99602.64;;;16.11;71.25
63194;BME280;49289;51.670;5.624;2023-03-31T08:11:07;99628.63;;;15.84;71.71
63194;BME280;49289;51.670;5.624;2023-03-31T08:12:55;99625.72;;;16.28;71.19
63194;BME280;49289;51.670;5.624;2023-03-31T08:14:43;99622.26;;;15.89;72.17
63194;BME280;49289;51.670;5.624;2023-03-31T08:16:31;99619.09;;;16.01;72.20
63194;BME280;49289;51.670;5.624;2023-03-31T08:18:19;99616.69;;;16.32;71.22
63194;BME280;49289;51.670;5.624;2023-03-31T08:20:08;99615.61;;;16.34;71.50
63194;BME280;49289;51.670;5.624;2023-03-31T08:21:56;99599.29;;;16.35;70.91
63194;BME280;49289;51.670;5.624;2023-03-31T08:23:43;99617.36;;;16.00;72.62
63194;BME280;49289;51.670;5.624;2023-03-31T08:25:31;99596.45;;;16.06;72.67
63194;BME280;49289;51.670;5.624;2023-03-31T08:27:19;99612.64;;;16.96;70.82
63194;BME280;49289;51.670;5.624;2023-03-31T08:29:07;99611.05;;;16.84;70.10
63194;BME280;49289;51.670;5.624;2023-03-31T08:30:56;99605.59;;;16.83;70.77
63194;BME280;49289;51.670;5.624;2023-03-31T08:32:44;99608.69;;;16.54;71.09
63194;BME280;49289;51.670;5.624;2023-03-31T08:34:32;99606.78;;;16.71;70.10
63194;BME280;49289;51.670;5.624;2023-03-31T08:36:20;99607.52;;;16.71;71.35
63194;BME280;49289;51.670;5.624;2023-03-31T08:38:07;99587.57;;;16.90;70.99
63194;BME280;49289;51.670;5.624;2023-03-31T08:39:54;99607.00;;;16.61;72.28
63194;BME280;49289;51.670;5.624;2023-03-31T08:41:48;99603.38;;;15.77;75.77
63194;BME280;49289;51.670;5.624;2023-03-31T08:43:36;99775.61;;;15.17;91.10
63194;BME280;49289;51.670;5.624;2023-03-31T08:45:24;100262.95;;;15.78;100.00
63194;BME280;49289;51.670;5.624;2023-03-31T08:47:12;99990.52;;;15.03;100.00
63194;BME280;49289;51.670;5.624;2023-03-31T08:48:58;100303.28;;;15.73;100.00
63194;BME280;49289;51.670;5.624;2023-03-31T08:50:48;100245.62;;;15.88;100.00
63194;BME280;49289;51.670;5.624;2023-03-31T08:52:36;99582.89;;;17.40;100.00
63194;BME280;49289;51.670;5.624;2023-03-31T08:54:24;99607.75;;;18.80;100.00
63194;BME280;49289;51.670;5.624;2023-03-31T08:56:13;99605.28;;;18.73;100.00
63194;BME280;49289;51.670;5.624;2023-03-31T08:58:02;99604.20;;;18.88;100.00
63194;BME280;49289;51.670;5.624;2023-03-31T08:59:48;99600.34;;;19.21;100.00
63194;BME280;49289;51.670;5.624;2023-03-31T09:01:38;99611.32;;;18.40;100.00
63194;BME280;49289;51.670;5.624;2023-03-31T09:03:27;99605.56;;;17.20;100.00
63194;BME280;49289;51.670;5.624;2023-03-31T09:05:38;99588.45;;;16.32;95.95
63194;BME280;49289;51.670;5.624;2023-03-31T09:07:25;99587.00;;;17.33;92.75
63194;BME280;49289;51.670;5.624;2023-03-31T09:09:15;99576.13;;;16.92;87.85
63194;BME280;49289;51.670;5.624;2023-03-31T09:11:03;99580.02;;;17.51;85.42
63194;BME280;49289;51.670;5.624;2023-03-31T09:12:52;99581.73;;;17.29;81.66
63194;BME280;49289;51.670;5.624;2023-03-31T09:15:38;99589.64;;;16.62;78.32
63194;BME280;49289;51.670;5.624;2023-03-31T09:17:28;99574.31;;;17.48;77.93
63194;BME280;49289;51.670;5.624;2023-03-31T09:19:33;99568.66;;;17.10;76.11
63194;BME280;49289;51.670;5.624;2023-03-31T09:21:09;99570.62;;;17.29;75.57
63194;BME280;49289;51.670;5.624;2023-03-31T09:22:56;99585.64;;;17.70;74.52
63194;BME280;49289;51.670;5.624;2023-03-31T09:24:45;99567.89;;;17.89;73.39
63194;BME280;49289;51.670;5.624;2023-03-31T09:26:35;99580.88;;;18.19;72.44
63194;BME280;49289;51.670;5.624;2023-03-31T09:28:25;99574.39;;;17.87;71.27
63194;BME280;49289;51.670;5.624;2023-03-31T09:30:15;99577.47;;;17.74;70.36
63194;BME280;49289;51.670;5.624;2023-03-31T09:32:05;99551.61;;;17.06;71.08
63194;BME280;49289;51.670;5.624;2023-03-31T09:33:52;99559.58;;;17.17;73.19
63194;BME280;49289;51.670;5.624;2023-03-31T09:35:40;99573.21;;;17.27;77.38
63194;BME280;49289;51.670;5.624;2023-03-31T09:37:29;99574.31;;;17.74;76.01
63194;BME280;49289;51.670;5.624;2023-03-31T09:39:17;99555.25;;;17.34;72.49
63194;BME280;49289;51.670;5.624;2023-03-31T09:41:05;99556.08;;;17.73;70.16